Time;durP1;ratioP1;P1;durP2;ratioP2;P2;SDS_P1;SDS_P2;PMS_P1;PMS_P2;Temp;Humidity;BMP_temperature;BMP_pressure;BME280_temperature;BME280_humidity;BME280_pressure;Samples;Min_cycle;Max_cycle;Signal;HPM_P1;HPM_P2
2023/08/15 00:00:26;;;;;;;7.90;2.47;;;;;;;20.32;100.00;101257.09;5024638;28;20044;-62
2023/08/15 00:02:51;;;;;;;4.90;2.15;;;;;;;20.35;100.00;101256.06;5045207;28;20021;-61
2023/08/15 00:05:17;;;;;;;7.15;2.20;;;;;;;20.39;100.00;101260.22;5045788;28;20060;-62
2023/08/15 00:07:42;;;;;;;8.98;2.47;;;;;;;20.30;100.00;101256.38;5031276;28;20731;-62
2023/08/15 00:10:07;;;;;;;7.95;2.20;;;;;;;20.33;100.00;101252.63;5029538;28;20026;-63
2023/08/15 00:12:33;;;;;;;5.65;2.10;;;;;;;20.31;100.00;101255.38;5043746;28;20033;-64
2023/08/15 00:14:58;;;;;;;10.80;2.30;;;;;;;20.27;100.00;101248.53;5048870;28;20468;-62
2023/08/15 00:17:23;;;;;;;4.57;1.90;;;;;;;20.24;100.00;101255.91;5048466;28;20029;-62
2023/08/15 00:19:49;;;;;;;5.90;2.50;;;;;;;20.23;100.00;101262.22;5049787;28;20123;-63
2023/08/15 00:22:15;;;;;;;7.05;2.40;;;;;;;20.24;100.00;101253.25;5048438;28;20140;-60
2023/08/15 00:24:41;;;;;;;9.98;2.10;;;;;;;20.27;100.00;101264.59;5049457;28;20179;-62
2023/08/15 00:27:06;;;;;;;7.78;2.60;;;;;;;20.30;100.00;101268.88;5048534;28;20475;-60
2023/08/15 00:29:31;;;;;;;7.25;2.53;;;;;;;20.32;100.00;101254.41;5048550;28;20025;-54
2023/08/15 00:31:57;;;;;;;6.82;2.17;;;;;;;20.31;100.00;101268.78;5048686;28;20647;-62
2023/08/15 00:34:22;;;;;;;9.02;2.70;;;;;;;20.28;100.00;101265.44;5048017;28;20710;-56
2023/08/15 00:36:47;;;;;;;10.98;2.85;;;;;;;20.27;100.00;101269.94;5048591;28;20032;-58
2023/08/15 00:39:13;;;;;;;7.43;2.38;;;;;;;20.25;100.00;101266.50;5047485;28;20518;-62
2023/08/15 00:41:38;;;;;;;8.35;2.40;;;;;;;20.23;100.00;101268.44;5048358;28;20049;-60
2023/08/15 00:44:04;;;;;;;8.70;2.30;;;;;;;20.19;100.00;101272.28;5038889;28;20539;-61
2023/08/15 00:46:30;;;;;;;11.80;2.67;;;;;;;20.27;100.00;101272.63;5029081;28;20033;-62
2023/08/15 00:48:56;;;;;;;8.30;2.33;;;;;;;20.36;100.00;101273.81;5028566;28;20044;-63
2023/08/15 00:51:21;;;;;;;8.05;2.35;;;;;;;20.35;100.00;101277.47;5029933;28;20120;-65
2023/08/15 00:53:47;;;;;;;9.85;2.90;;;;;;;20.43;100.00;101279.56;5033181;28;20400;-58
2023/08/15 00:56:13;;;;;;;7.70;2.15;;;;;;;20.43;100.00;101282.25;5049353;28;20398;-60
2023/08/15 00:58:39;;;;;;;6.90;2.20;;;;;;;20.40;100.00;101285.16;5043595;28;20372;-64
2023/08/15 01:01:04;;;;;;;12.90;2.42;;;;;;;20.35;100.00;101296.19;5029429;28;20453;-60
2023/08/15 01:03:30;;;;;;;7.97;2.53;;;;;;;20.34;100.00;101286.44;5027697;28;20675;-63
2023/08/15 01:05:55;;;;;;;13.85;2.47;;;;;;;20.30;100.00;101284.94;5047045;28;20025;-61
2023/08/15 01:08:21;;;;;;;8.20;2.67;;;;;;;20.31;100.00;101281.28;5048575;28;20426;-62
2023/08/15 01:10:46;;;;;;;7.80;2.42;;;;;;;20.25;100.00;101276.34;5048105;28;20442;-61
2023/08/15 01:13:26;;;;;;;10.65;2.08;;;;;;;20.14;100.00;101264.56;5047238;28;20032;-62
2023/08/15 01:15:52;;;;;;;6.45;2.05;;;;;;;20.11;100.00;101264.78;5030140;28;20079;-63
2023/08/15 01:18:20;;;;;;;9.90;2.55;;;;;;;20.04;100.00;101263.47;5028620;28;20029;-59
2023/08/15 01:20:46;;;;;;;10.43;2.40;;;;;;;19.98;100.00;101261.22;5042850;28;20053;-62
2023/08/15 01:23:12;;;;;;;8.93;2.17;;;;;;;19.92;100.00;101252.63;5046884;28;20025;-59
2023/08/15 01:25:42;;;;;;;8.25;2.20;;;;;;;19.85;100.00;101254.00;5046326;28;20033;-56
2023/08/15 01:28:12;;;;;;;11.73;2.67;;;;;;;19.76;100.00;101258.16;5047934;28;20060;-58
2023/08/15 01:30:40;;;;;;;13.85;2.63;;;;;;;19.74;100.00;101260.06;5046514;28;20364;-61
2023/08/15 01:33:11;;;;;;;7.60;2.33;;;;;;;19.70;100.00;101261.22;5047400;28;20024;-63
2023/08/15 01:35:45;;;;;;;12.48;2.95;;;;;;;19.64;100.00;101273.19;5037408;28;20109;-61
2023/08/15 01:38:16;;;;;;;15.43;2.90;;;;;;;19.60;100.00;101270.81;5026805;28;20029;-63
2023/08/15 01:40:42;;;;;;;15.65;2.50;;;;;;;19.53;100.00;101268.53;5026234;28;20430;-62
2023/08/15 01:43:09;;;;;;;12.32;3.28;;;;;;;19.55;100.00;101273.78;5027103;28;20029;-60
2023/08/15 01:45:35;;;;;;;15.10;2.88;;;;;;;19.56;100.00;101267.47;5032412;28;20025;-62
2023/08/15 01:48:00;;;;;;;9.30;2.42;;;;;;;19.54;100.00;101258.72;5047617;28;20106;-57
2023/08/15 01:50:25;;;;;;;10.73;2.85;;;;;;;19.49;100.00;101263.47;5036609;28;20025;-60
2023/08/15 01:52:51;;;;;;;9.45;2.30;;;;;;;19.49;100.00;101268.81;5027791;28;20446;-65
2023/08/15 01:55:16;;;;;;;11.00;2.63;;;;;;;19.49;100.00;101268.81;5025349;28;20031;-65
2023/08/15 01:57:42;;;;;;;9.60;2.60;;;;;;;19.52;100.00;101271.31;5027060;28;20025;-60
2023/08/15 02:00:07;;;;;;;15.50;2.53;;;;;;;19.62;100.00;101269.75;5026652;28;20030;-62
2023/08/15 02:02:33;;;;;;;15.43;2.72;;;;;;;19.65;100.00;101263.31;5027888;28;20057;-61
2023/08/15 02:05:01;;;;;;;8.82;2.85;;;;;;;19.69;100.00;101272.88;5033239;28;20111;-61
2023/08/15 02:07:27;;;;;;;9.93;2.70;;;;;;;19.73;100.00;101270.84;5047370;28;20669;-64
2023/08/15 02:09:52;;;;;;;15.13;2.78;;;;;;;19.79;100.00;101271.31;5047045;28;20081;-59
2023/08/15 02:12:17;;;;;;;10.40;2.40;;;;;;;19.81;100.00;101269.38;5047675;28;20039;-58
2023/08/15 02:14:43;;;;;;;12.77;2.58;;;;;;;19.74;100.00;101267.22;5044669;28;20017;-64
2023/08/15 02:17:08;;;;;;;10.15;2.63;;;;;;;19.75;100.00;101266.28;5028068;28;20088;-62
2023/08/15 02:19:33;;;;;;;13.48;2.95;;;;;;;19.68;100.00;101280.03;5026201;28;20387;-62
2023/08/15 02:21:59;;;;;;;13.77;2.95;;;;;;;19.60;100.00;101276.16;5044999;28;20088;-56
2023/08/15 02:24:24;;;;;;;13.68;2.80;;;;;;;19.55;100.00;101273.78;5046691;28;20024;-62
2023/08/15 02:26:49;;;;;;;9.90;3.28;;;;;;;19.57;100.00;101274.53;5031315;28;20041;-62
2023/08/15 02:29:15;;;;;;;12.10;2.70;;;;;;;19.55;100.00;101273.78;5026104;28;20033;-63
2023/08/15 02:31:46;;;;;;;9.63;2.60;;;;;;;19.49;100.00;101271.50;5039793;28;20039;-63
2023/08/15 02:34:11;;;;;;;19.08;3.20;;;;;;;19.47;100.00;101276.09;5047421;28;20031;-61
2023/08/15 02:36:36;;;;;;;12.52;3.28;;;;;;;19.42;100.00;101285.25;5035689;28;20025;-66
2023/08/15 02:39:03;;;;;;;7.15;2.65;;;;;;;19.38;100.00;101283.75;5027340;28;20041;-64
2023/08/15 02:41:28;;;;;;;9.82;2.88;;;;;;;19.41;100.00;101291.56;5040276;28;20033;-58
2023/08/15 02:43:54;;;;;;;13.00;3.70;;;;;;;19.44;100.00;101302.06;5046488;28;20021;-63
2023/08/15 02:46:19;;;;;;;20.17;3.60;;;;;;;19.43;100.00;101305.69;5034039;28;20545;-61
2023/08/15 02:48:45;;;;;;;7.90;2.97;;;;;;;19.49;100.00;101304.44;5026701;28;20158;-63
2023/08/15 02:51:10;;;;;;;11.55;2.72;;;;;;;19.56;100.00;101307.56;5036165;28;20662;-62
2023/08/15 02:53:36;;;;;;;16.95;3.38;;;;;;;19.57;100.00;101314.63;5047597;28;20025;-62
2023/08/15 02:56:01;;;;;;;15.02;3.20;;;;;;;19.53;100.00;101313.97;5038859;28;20076;-61
2023/08/15 02:58:27;;;;;;;13.50;3.17;;;;;;;19.55;100.00;101324.56;5026550;28;20026;-61
2023/08/15 03:00:52;;;;;;;10.75;2.88;;;;;;;19.57;100.00;101322.66;5026139;28;20116;-62
2023/08/15 03:03:17;;;;;;;9.10;2.63;;;;;;;19.50;100.00;101318.66;5027103;28;20072;-64
2023/08/15 03:05:43;;;;;;;11.65;2.97;;;;;;;19.45;100.00;101310.94;5032205;28;20017;-62
2023/08/15 03:08:08;;;;;;;9.10;2.65;;;;;;;19.43;100.00;101313.72;5045610;28;20059;-61
2023/08/15 03:10:36;;;;;;;12.43;2.80;;;;;;;19.30;100.00;101313.63;5045837;28;20020;-63
2023/08/15 03:13:02;;;;;;;11.35;3.30;;;;;;;19.32;100.00;101305.50;5047317;28;20041;-62
2023/08/15 03:15:27;;;;;;;11.10;2.75;;;;;;;19.25;100.00;101309.53;5042819;28;20028;-63
2023/08/15 03:17:54;;;;;;;11.63;2.55;;;;;;;19.13;100.00;101309.34;5027736;28;20108;-61
2023/08/15 03:20:19;;;;;;;14.38;2.85;;;;;;;19.10;100.00;101317.56;5027148;28;20395;-58
2023/08/15 03:22:44;;;;;;;10.27;2.67;;;;;;;19.05;100.00;101314.28;5046488;28;20033;-60
2023/08/15 03:25:10;;;;;;;11.40;3.15;;;;;;;19.01;100.00;101323.44;5046540;28;20052;-62
2023/08/15 03:27:35;;;;;;;15.50;3.22;;;;;;;18.99;100.00;101320.03;5045489;28;20033;-62
2023/08/15 03:30:01;;;;;;;15.80;2.80;;;;;;;19.02;100.00;101319.84;5045553;28;20717;-60
2023/08/15 03:32:26;;;;;;;9.90;2.70;;;;;;;19.02;100.00;101326.00;5031339;28;20441;-60
2023/08/15 03:34:52;;;;;;;15.85;3.28;;;;;;;19.06;100.00;101327.53;5026863;28;20140;-61
2023/08/15 03:37:17;;;;;;;10.65;3.15;;;;;;;19.06;100.00;101324.88;5026462;28;20052;-61
2023/08/15 03:39:42;;;;;;;11.63;2.63;;;;;;;19.08;100.00;101324.78;5024524;28;20029;-55
2023/08/15 03:42:08;;;;;;;10.52;3.15;;;;;;;19.08;100.00;101332.81;5036908;28;20054;-64
2023/08/15 03:44:33;;;;;;;11.10;2.90;;;;;;;19.08;100.00;101324.78;5049372;28;20448;-62
2023/08/15 03:46:58;;;;;;;8.45;2.60;;;;;;;19.06;100.00;101329.38;5047847;28;20028;-58
2023/08/15 03:49:24;;;;;;;15.20;2.92;;;;;;;19.07;100.00;101328.41;5050126;28;20021;-62
2023/08/15 03:51:49;;;;;;;9.32;2.80;;;;;;;19.00;100.00;101335.09;5032312;28;20029;-62
2023/08/15 03:54:14;;;;;;;10.48;2.63;;;;;;;18.99;100.00;101341.38;5030410;28;20118;-59
2023/08/15 03:56:40;;;;;;;12.75;2.90;;;;;;;18.98;100.00;101335.19;5043350;28;20035;-61
2023/08/15 03:59:05;;;;;;;11.63;3.20;;;;;;;18.94;100.00;101337.16;5048411;28;20021;-62
2023/08/15 04:01:31;;;;;;;13.18;2.72;;;;;;;18.93;100.00;101346.13;5047982;28;20057;-57
2023/08/15 04:03:56;;;;;;;12.25;2.95;;;;;;;18.95;100.00;101343.38;5045772;28;20036;-61
2023/08/15 04:06:22;;;;;;;10.40;2.95;;;;;;;18.97;100.00;101343.28;5030018;28;20032;-62
2023/08/15 04:08:47;;;;;;;11.40;2.80;;;;;;;18.94;100.00;101344.34;5029340;28;20461;-57
2023/08/15 04:11:12;;;;;;;10.80;2.63;;;;;;;18.89;100.00;101336.59;5029962;28;20021;-59
2023/08/15 04:13:38;;;;;;;16.25;3.65;;;;;;;18.84;100.00;101338.69;5028815;28;20492;-59
2023/08/15 04:16:04;;;;;;;10.13;2.83;;;;;;;18.87;100.00;101337.66;5046791;28;20442;-62
2023/08/15 04:18:29;;;;;;;12.68;3.53;;;;;;;18.86;100.00;101328.78;5049534;28;20029;-62
2023/08/15 04:20:55;;;;;;;17.02;3.47;;;;;;;18.82;100.00;101333.44;5033124;28;20049;-58
2023/08/15 04:23:20;;;;;;;15.02;3.45;;;;;;;18.84;100.00;101330.66;5029609;28;20517;-60
2023/08/15 04:25:46;;;;;;;14.88;3.55;;;;;;;18.81;100.00;101325.53;5030200;28;20030;-59
2023/08/15 04:28:11;;;;;;;7.20;2.95;;;;;;;18.80;100.00;101326.47;5028670;28;20570;-58
2023/08/15 04:30:36;;;;;;;11.77;3.00;;;;;;;18.82;100.00;101319.25;5033123;28;20029;-63
2023/08/15 04:33:02;;;;;;;9.38;3.15;;;;;;;18.77;100.00;101321.31;5047531;28;20112;-63
2023/08/15 04:35:27;;;;;;;14.70;3.63;;;;;;;18.81;100.00;101328.19;5045791;28;20092;-63
2023/08/15 04:37:52;;;;;;;17.05;3.97;;;;;;;18.79;100.00;101328.28;5028253;28;20108;-58
2023/08/15 04:40:30;;;;;;;15.32;3.22;;;;;;;18.81;100.00;101331.72;5029018;28;20025;-60
2023/08/15 04:42:56;;;;;;;17.17;3.60;;;;;;;18.81;100.00;101323.72;5029735;28;20037;-59
2023/08/15 04:45:21;;;;;;;11.88;3.47;;;;;;;18.79;100.00;101335.44;5028251;28;20082;-61
2023/08/15 04:47:46;;;;;;;16.83;4.25;;;;;;;18.79;100.00;101324.78;5028582;28;20040;-58
2023/08/15 04:50:12;;;;;;;18.52;4.38;;;;;;;18.77;100.00;101332.00;5028440;28;20595;-63
2023/08/15 04:52:37;;;;;;;15.73;3.55;;;;;;;18.85;100.00;101326.19;5042812;28;20102;-61
2023/08/15 04:55:03;;;;;;;19.23;3.80;;;;;;;18.86;100.00;101327.91;5048918;28;20028;-62
2023/08/15 04:57:28;;;;;;;15.52;4.30;;;;;;;18.89;100.00;101336.59;5048882;28;20032;-63
2023/08/15 04:59:53;;;;;;;18.45;4.05;;;;;;;18.92;100.00;101348.91;5048430;28;20025;-62
2023/08/15 05:02:19;;;;;;;21.42;3.92;;;;;;;19.00;100.00;101353.78;5048018;28;20035;-62
2023/08/15 05:04:44;;;;;;;20.27;4.15;;;;;;;19.02;100.00;101349.22;5048593;28;20027;-63
2023/08/15 05:07:10;;;;;;;22.13;4.20;;;;;;;19.02;100.00;101357.22;5048189;28;20064;-62
2023/08/15 05:09:35;;;;;;;17.35;3.58;;;;;;;19.08;100.00;101362.19;5048382;28;20025;-62
2023/08/15 05:12:01;;;;;;;18.25;4.38;;;;;;;19.09;100.00;101368.41;5037648;28;20578;-62
2023/08/15 05:14:26;;;;;;;17.92;3.60;;;;;;;19.21;100.00;101362.31;5046162;28;20029;-63
2023/08/15 05:16:52;;;;;;;15.10;3.50;;;;;;;19.28;100.00;101363.63;5046734;28;20471;-62
2023/08/15 05:19:17;;;;;;;22.55;4.63;;;;;;;19.28;100.00;101368.09;5047508;28;20095;-64
2023/08/15 05:21:42;;;;;;;12.70;3.92;;;;;;;19.42;100.00;101368.09;5047425;28;20129;-55
2023/08/15 05:24:08;;;;;;;12.20;3.80;;;;;;;19.53;100.00;101371.88;5049032;28;20036;-63
2023/08/15 05:26:33;;;;;;;13.45;3.20;;;;;;;19.57;100.00;101374.28;5046707;28;20025;-58
2023/08/15 05:28:58;;;;;;;18.65;4.03;;;;;;;19.69;100.00;101388.66;5047323;28;20561;-61
2023/08/15 05:31:24;;;;;;;19.38;3.40;;;;;;;19.83;100.00;101385.13;5046874;28;20449;-59
2023/08/15 05:33:49;;;;;;;15.73;3.05;;;;;;;19.95;100.00;101394.16;5046190;28;20021;-62
2023/08/15 05:36:14;;;;;;;13.63;3.30;;;;;;;20.00;100.00;101395.66;5041808;28;20036;-62
2023/08/15 05:38:40;;;;;;;14.23;3.72;;;;;;;20.16;100.00;101395.53;5046550;28;20051;-68
2023/08/15 05:41:05;;;;;;;13.40;3.38;;;;;;;20.19;100.00;101398.00;5038094;28;20116;-58
2023/08/15 05:43:31;;;;;;;17.17;3.28;;;;;;;20.24;100.00;101405.75;5026688;28;20037;-62
2023/08/15 05:45:57;;;;;;;13.18;3.55;;;;;;;20.31;100.00;101401.69;5032689;28;20013;-62
2023/08/15 05:48:22;;;;;;;13.63;3.70;;;;;;;20.35;100.00;101403.22;5046477;28;20025;-55
2023/08/15 05:50:47;;;;;;;11.88;3.47;;;;;;;20.39;100.00;101406.53;5043104;28;20111;-60
2023/08/15 05:53:13;;;;;;;16.65;4.38;;;;;;;20.41;100.00;101396.59;5037878;28;20275;-64
2023/08/15 05:55:38;;;;;;;15.98;3.85;;;;;;;20.50;100.00;101404.00;5046681;28;20422;-62
2023/08/15 05:58:03;;;;;;;17.98;3.92;;;;;;;20.54;100.00;101393.94;5044733;28;20426;-64
2023/08/15 06:00:29;;;;;;;21.30;4.22;;;;;;;20.48;100.00;101392.53;5047857;28;20037;-62
2023/08/15 06:02:54;;;;;;;13.55;3.95;;;;;;;20.58;100.00;101393.63;5045994;28;20622;-60
2023/08/15 06:05:21;;;;;;;18.63;3.40;;;;;;;20.58;100.00;101403.47;5046543;28;20040;-62
2023/08/15 06:07:47;;;;;;;14.73;3.80;;;;;;;20.56;100.00;101402.75;5041835;28;20033;-62
2023/08/15 06:10:13;;;;;;;17.83;4.13;;;;;;;20.53;100.00;101408.31;5026164;28;20022;-62
2023/08/15 06:12:38;;;;;;;10.90;3.92;;;;;;;20.56;100.00;101416.13;5029809;28;20108;-64
2023/08/15 06:15:04;;;;;;;14.32;3.83;;;;;;;20.51;100.00;101426.28;5042920;28;20460;-59
2023/08/15 06:17:29;;;;;;;16.40;4.38;;;;;;;20.47;100.00;101422.09;5045240;28;20020;-61
2023/08/15 06:19:55;;;;;;;21.73;4.00;;;;;;;20.41;100.00;101426.88;5037957;28;20111;-62
2023/08/15 06:22:20;;;;;;;20.15;4.43;;;;;;;20.38;100.00;101436.94;5046294;28;20036;-60
2023/08/15 06:24:45;;;;;;;15.27;4.47;;;;;;;20.37;100.00;101443.25;5045607;28;20063;-64
2023/08/15 06:27:11;;;;;;;9.85;3.10;;;;;;;20.25;100.00;101443.09;5046069;28;20036;-61
2023/08/15 06:29:37;;;;;;;14.43;4.28;;;;;;;20.23;100.00;101449.53;5044817;28;20159;-61
2023/08/15 06:32:02;;;;;;;17.73;3.95;;;;;;;20.29;100.00;101454.47;5045967;28;20035;-64
2023/08/15 06:34:28;;;;;;;16.92;4.18;;;;;;;20.36;100.00;101463.81;5043920;28;20025;-63
2023/08/15 06:36:53;;;;;;;17.73;4.25;;;;;;;20.43;100.00;101461.56;5046025;28;20068;-60
2023/08/15 06:39:18;;;;;;;14.23;3.97;;;;;;;20.50;100.00;101462.88;5045516;28;20490;-64
2023/08/15 06:41:44;;;;;;;12.95;4.07;;;;;;;20.53;100.00;101468.03;5045806;28;20483;-61
2023/08/15 06:44:09;;;;;;;13.00;4.40;;;;;;;20.64;100.00;101472.69;5039028;28;20496;-60
2023/08/15 06:46:35;;;;;;;12.68;3.80;;;;;;;20.82;100.00;101478.63;5026241;28;20025;-63
2023/08/15 06:49:00;;;;;;;16.20;4.75;;;;;;;20.93;100.00;101475.25;5025237;28;20025;-63
2023/08/15 06:51:26;;;;;;;14.85;3.85;;;;;;;21.14;100.00;101480.09;5025794;28;20068;-63
2023/08/15 06:53:52;;;;;;;19.92;4.85;;;;;;;21.29;100.00;101480.84;5036051;28;20075;-62
2023/08/15 06:56:18;;;;;;;13.90;3.88;;;;;;;21.43;100.00;101493.28;5045686;28;20043;-65
2023/08/15 06:58:43;;;;;;;13.18;4.22;;;;;;;21.49;100.00;101489.31;5044472;28;20505;-63
2023/08/15 07:01:09;;;;;;;16.90;4.68;;;;;;;21.53;100.00;101500.69;5044636;28;20033;-63
2023/08/15 07:03:34;;;;;;;11.20;3.88;;;;;;;21.67;100.00;101502.41;5044858;28;20043;-65
2023/08/15 07:06:00;;;;;;;7.95;3.28;;;;;;;21.77;100.00;101500.81;5046189;28;20028;-63
2023/08/15 07:08:25;;;;;;;14.70;3.72;;;;;;;21.71;100.00;101512.78;5044337;28;20024;-61
2023/08/15 07:10:55;;;;;;;10.05;3.30;;;;;;;21.65;100.00;101504.31;5045952;28;20029;-64
2023/08/15 07:13:21;;;;;;;12.20;3.55;;;;;;;21.75;100.00;101496.47;5042413;28;20028;-62
2023/08/15 07:15:46;;;;;;;13.48;4.00;;;;;;;21.68;100.00;101507.66;5040767;28;20354;-63
2023/08/15 07:18:11;;;;;;;6.82;3.45;;;;;;;21.53;100.00;101506.91;5044419;28;20029;-61
2023/08/15 07:20:37;;;;;;;20.65;4.43;;;;;;;21.32;100.00;101498.53;5044611;28;20139;-62
2023/08/15 07:23:02;;;;;;;9.35;3.40;;;;;;;21.49;100.00;101504.56;5045596;28;20028;-64
2023/08/15 07:25:27;;;;;;;9.15;3.22;;;;;;;21.68;100.00;101507.66;5044775;28;20540;-63
2023/08/15 07:27:53;;;;;;;10.73;3.33;;;;;;;21.73;100.00;101499.25;5045252;28;20033;-61
2023/08/15 07:30:18;;;;;;;12.25;3.75;;;;;;;21.91;100.00;101498.97;5045079;28;20497;-64
2023/08/15 07:32:44;;;;;;;10.73;3.60;;;;;;;22.16;100.00;101498.03;5044849;28;20033;-62
2023/08/15 07:35:09;;;;;;;11.63;3.25;;;;;;;22.32;100.00;101499.56;5044620;28;20407;-63
2023/08/15 07:37:35;;;;;;;7.63;2.95;;;;;;;22.34;100.00;101503.00;5044203;28;20028;-61
2023/08/15 07:40:07;;;;;;;11.10;3.65;;;;;;;22.48;100.00;101510.03;5044439;28;20091;-62
2023/08/15 07:42:32;;;;;;;13.05;3.30;;;;;;;22.59;100.00;101506.59;5042737;28;20028;-63
2023/08/15 07:44:58;;;;;;;8.07;3.05;;;;;;;22.82;100.00;101509.38;5044796;28;20033;-63
2023/08/15 07:47:24;;;;;;;14.50;3.58;;;;;;;22.73;100.00;101516.28;5045136;28;20070;-63
2023/08/15 07:49:49;;;;;;;6.68;2.92;;;;;;;22.75;100.00;101518.88;5042233;28;20074;-63
2023/08/15 07:52:14;;;;;;;9.05;3.25;;;;;;;22.83;100.00;101511.94;5043296;28;20025;-62
2023/08/15 07:54:42;;;;;;;11.10;4.00;;;;;;;22.73;100.00;101516.28;5044664;28;20479;-59
2023/08/15 07:57:08;;;;;;;9.30;3.43;;;;;;;22.78;100.00;101524.00;5045532;28;20041;-63
2023/08/15 07:59:33;;;;;;;11.18;3.80;;;;;;;22.84;100.00;101520.84;5037769;28;20022;-61
2023/08/15 08:01:58;;;;;;;8.80;3.45;;;;;;;22.91;100.00;101524.78;5039811;28;20041;-63
2023/08/15 08:04:24;;;;;;;9.68;3.15;;;;;;;22.90;100.00;101531.13;5044454;28;20157;-62
2023/08/15 08:06:49;;;;;;;11.15;3.60;;;;;;;23.00;100.00;101530.44;5032407;28;20103;-63
2023/08/15 08:09:14;;;;;;;9.80;3.10;;;;;;;23.02;100.00;101531.19;5025121;28;20349;-62
2023/08/15 08:11:40;;;;;;;9.30;3.63;;;;;;;22.86;100.00;101548.47;5024817;28;20456;-64
2023/08/15 08:14:05;;;;;;;7.40;3.53;;;;;;;22.62;100.00;101541.25;5024651;28;20049;-60
2023/08/15 08:16:31;;;;;;;8.43;3.65;;;;;;;22.63;100.00;101539.44;5023887;28;20049;-61
2023/08/15 08:18:56;;;;;;;14.30;3.90;;;;;;;22.67;100.00;101541.75;5024434;28;20125;-62
2023/08/15 08:21:22;;;;;;;10.93;3.72;;;;;;;22.82;100.00;101538.91;5025994;28;20529;-62
2023/08/15 08:23:47;;;;;;;9.68;3.67;;;;;;;22.87;100.00;101542.09;5041620;28;20513;-62
2023/08/15 08:26:12;;;;;;;7.32;3.22;;;;;;;22.90;100.00;101541.03;5045773;28;20033;-61
2023/08/15 08:28:38;;;;;;;7.03;3.08;;;;;;;23.00;100.00;101543.88;5047317;28;20340;-61
2023/08/15 08:31:04;;;;;;;10.25;3.58;;;;;;;22.85;100.00;101547.59;5048820;28;20025;-60
2023/08/15 08:33:29;;;;;;;7.68;2.83;;;;;;;22.76;100.00;101547.44;5047376;28;20029;-59
2023/08/15 08:35:55;;;;;;;10.45;4.03;;;;;;;22.61;100.00;101541.38;5049982;28;20043;-63
2023/08/15 08:38:20;;;;;;;10.95;3.67;;;;;;;22.46;100.00;101553.09;5045808;28;20087;-58
2023/08/15 08:40:47;;;;;;;10.07;3.90;;;;;;;22.41;100.00;101566.03;5046795;28;20464;-62
2023/08/15 08:43:13;;;;;;;10.82;3.63;;;;;;;22.29;100.00;101561.53;5047992;28;20669;-63
2023/08/15 08:45:40;;;;;;;6.80;3.00;;;;;;;22.24;100.00;101555.66;5045901;28;20037;-59
2023/08/15 08:48:08;;;;;;;6.72;2.78;;;;;;;22.40;100.00;101555.38;5047530;28;20078;-63
2023/08/15 08:50:34;;;;;;;6.55;2.38;;;;;;;22.63;100.00;101556.41;5044937;28;20029;-62
2023/08/15 08:52:59;;;;;;;7.90;3.10;;;;;;;22.79;100.00;101569.53;5046423;28;20024;-62
2023/08/15 08:55:27;;;;;;;7.80;2.75;;;;;;;22.89;100.00;101558.97;5047553;28;20044;-61
2023/08/15 08:57:53;;;;;;;8.15;2.80;;;;;;;23.04;100.00;101553.41;5047070;28;20021;-59
2023/08/15 09:00:25;;;;;;;10.23;2.78;;;;;;;23.35;100.00;101556.41;5043606;28;20086;-61
2023/08/15 09:02:52;;;;;;;6.03;3.13;;;;;;;23.26;100.00;101568.75;5039814;28;20204;-63
2023/08/15 09:05:18;;;;;;;6.50;3.40;;;;;;;22.96;100.00;101579.03;5033386;28;20017;-64
2023/08/15 09:07:43;;;;;;;4.25;2.75;;;;;;;22.67;100.00;101574.00;5048082;28;20371;-63
2023/08/15 09:10:09;;;;;;;6.78;2.95;;;;;;;22.39;100.00;101581.38;5048191;28;20060;-59
2023/08/15 09:12:37;;;;;;;7.43;2.65;;;;;;;22.26;100.00;101583.22;5047764;28;20068;-63
2023/08/15 09:15:09;;;;;;;8.75;2.70;;;;;;;22.13;100.00;101577.91;5048159;28;20059;-63
2023/08/15 09:17:35;;;;;;;8.75;2.80;;;;;;;22.03;100.00;101580.38;5047729;28;20090;-59
2023/08/15 09:20:26;;;;;;;4.45;2.50;;;;;;;22.46;100.00;101577.25;5043562;28;20064;-62
2023/08/15 09:22:58;;;;;;;5.35;2.45;;;;;;;22.65;100.00;101581.31;5042803;28;20128;-61
2023/08/15 09:25:25;;;;;;;8.80;2.53;;;;;;;22.77;100.00;101581.38;5044175;28;20225;-63
2023/08/15 09:27:50;;;;;;;6.80;2.72;;;;;;;22.90;100.00;101582.16;5026282;28;20072;-62
2023/08/15 09:30:17;;;;;;;6.60;2.53;;;;;;;22.93;100.00;101581.06;5032920;28;20056;-63
2023/08/15 09:32:44;;;;;;;9.88;2.88;;;;;;;23.04;100.00;101581.16;5047500;28;20401;-62
2023/08/15 09:35:11;;;;;;;9.23;2.40;;;;;;;23.08;100.00;101585.31;5047603;28;20079;-63
2023/08/15 09:37:44;;;;;;;4.03;2.25;;;;;;;22.95;100.00;101604.19;5043191;28;20123;-59
2023/08/15 09:40:11;;;;;;;3.47;1.70;;;;;;;22.81;100.00;101590.91;5047306;28;20074;-61
2023/08/15 09:42:37;;;;;;;4.40;1.98;;;;;;;22.86;100.00;101588.75;5032315;28;20029;-65
2023/08/15 09:45:03;;;;;;;2.38;1.75;;;;;;;23.18;100.00;101598.88;5046659;28;20049;-57
2023/08/15 09:47:28;;;;;;;2.15;1.60;;;;;;;23.29;100.00;101602.59;5045402;28;20025;-65
2023/08/15 09:49:54;;;;;;;4.40;1.60;;;;;;;23.25;100.00;101610.06;5047802;28;20218;-64
2023/08/15 09:52:20;;;;;;;1.50;1.20;;;;;;;23.34;100.00;101608.47;5046445;28;20067;-60
2023/08/15 09:54:45;;;;;;;2.40;1.40;;;;;;;23.58;100.00;101605.78;5046018;28;20021;-62
2023/08/15 09:57:11;;;;;;;3.35;1.27;;;;;;;23.74;100.00;101609.94;5045869;28;20055;-55
2023/08/15 09:59:37;;;;;;;2.75;1.20;;;;;;;24.05;100.00;101607.50;5047167;28;20021;-63
2023/08/15 10:02:03;;;;;;;1.40;0.95;;;;;;;23.89;100.00;101612.41;5047271;28;20033;-55
2023/08/15 10:04:31;;;;;;;0.95;0.80;;;;;;;24.21;100.00;101609.91;5045620;28;20025;-61
2023/08/15 10:06:57;;;;;;;3.08;1.00;;;;;;;24.34;100.00;101625.03;5046218;28;20091;-67
2023/08/15 10:09:24;;;;;;;4.00;0.90;;;;;;;24.35;100.00;101618.69;5035791;28;20032;-61
2023/08/15 10:11:49;;;;;;;2.53;1.02;;;;;;;24.04;100.00;101621.09;5038183;28;20056;-64
2023/08/15 10:14:17;;;;;;;1.67;1.00;;;;;;;23.81;100.00;101635.38;5039156;28;20065;-61
2023/08/15 10:16:43;;;;;;;1.48;0.68;;;;;;;23.60;100.00;101637.94;5046856;28;20537;-60
2023/08/15 10:19:09;;;;;;;2.20;0.95;;;;;;;23.28;100.00;101638.53;5045342;28;20029;-61
2023/08/15 10:21:52;;;;;;;1.08;0.80;;;;;;;23.00;100.00;101644.16;5043847;28;20479;-65
2023/08/15 10:24:17;;;;;;;2.28;1.05;;;;;;;23.11;100.00;101643.34;5046879;28;20029;-63
2023/08/15 10:26:44;;;;;;;2.47;0.75;;;;;;;23.17;100.00;101648.25;5044500;28;20033;-64
2023/08/15 10:29:09;;;;;;;0.60;0.60;;;;;;;23.52;100.00;101653.78;5046381;28;20028;-62
2023/08/15 10:31:39;;;;;;;1.33;0.65;;;;;;;23.46;100.00;101650.63;5043204;28;20476;-58
2023/08/15 10:34:08;;;;;;;2.38;0.60;;;;;;;23.22;100.00;101659.53;5034196;28;20113;-61
2023/08/15 10:36:33;;;;;;;2.45;1.08;;;;;;;23.03;100.00;101661.88;5046618;28;20029;-61
2023/08/15 10:39:06;;;;;;;2.67;1.00;;;;;;;22.76;100.00;101668.31;5045728;28;20037;-60
2023/08/15 10:41:33;;;;;;;1.60;1.00;;;;;;;22.89;100.00;101663.75;5044529;28;20033;-61
2023/08/15 10:44:02;;;;;;;1.73;1.25;;;;;;;23.10;100.00;101666.69;5043436;28;20060;-59
2023/08/15 10:46:29;;;;;;;1.40;1.13;;;;;;;23.42;100.00;101659.88;5047015;28;20029;-64
2023/08/15 10:49:05;;;;;;;2.92;1.50;;;;;;;23.65;100.00;101656.38;5046236;28;20075;-63
2023/08/15 10:51:32;;;;;;;2.88;1.00;;;;;;;23.78;100.00;101665.22;5046455;28;20120;-63
2023/08/15 10:54:00;;;;;;;1.60;1.05;;;;;;;23.76;100.00;101660.94;5043955;28;20024;-64
2023/08/15 10:56:32;;;;;;;1.83;1.02;;;;;;;24.09;100.00;101662.84;5046901;28;20021;-62
2023/08/15 10:58:59;;;;;;;1.85;1.00;;;;;;;24.57;100.00;101663.59;5031923;28;20033;-61
2023/08/15 11:01:27;;;;;;;2.65;1.35;;;;;;;24.92;100.00;101671.66;5026366;28;20029;-60
2023/08/15 11:03:54;;;;;;;2.22;1.23;;;;;;;25.53;100.00;101669.31;5035014;28;20037;-59
2023/08/15 11:06:20;;;;;;;4.60;1.35;;;;;;;25.64;100.00;101666.56;5047489;28;20028;-58